createdAt,value
2018-09-06T00:01:58.550Z,26.70
2018-09-06T00:06:39.459Z,26.15
2018-09-06T00:11:19.207Z,27.55
2018-09-06T00:15:59.044Z,26.70
2018-09-06T00:20:40.189Z,25.68
2018-09-06T00:25:20.252Z,28.30
2018-09-06T00:30:00.990Z,25.57
2018-09-06T00:34:40.652Z,26.25
2018-09-06T00:39:20.647Z,24.77
2018-09-06T00:44:01.297Z,25.62
2018-09-06T00:48:42.322Z,28.83
2018-09-06T00:53:24.140Z,26.12
2018-09-06T00:58:04.900Z,26.17
2018-09-06T01:02:45.228Z,25.70
2018-09-06T01:07:25.604Z,26.85
2018-09-06T01:12:05.555Z,25.48
2018-09-06T01:16:45.447Z,29.85
2018-09-06T01:21:25.944Z,27.35
2018-09-06T01:26:07.061Z,25.57
2018-09-06T01:30:48.129Z,25.80
2018-09-06T01:35:27.897Z,30.85
2018-09-06T01:40:08.277Z,23.65
2018-09-06T01:44:48.760Z,25.32
2018-09-06T01:49:28.952Z,28.23
2018-09-06T01:54:09.888Z,26.12
2018-09-06T01:58:50.257Z,27.25
2018-09-06T02:03:30.991Z,24.90
2018-09-06T02:08:10.763Z,25.77
2018-09-06T02:12:50.505Z,24.43
2018-09-06T02:17:31.080Z,25.08
2018-09-06T02:22:10.907Z,25.72
2018-09-06T02:26:51.008Z,22.90
2018-09-06T02:31:31.539Z,23.85
2018-09-06T02:36:11.624Z,23.98
2018-09-06T02:40:52.052Z,25.10
2018-09-06T02:45:32.354Z,21.85
2018-09-06T02:50:18.090Z,23.87
2018-09-06T02:54:57.839Z,26.25
2018-09-06T02:59:39.063Z,25.35
2018-09-06T03:04:19.129Z,25.60
2018-09-06T03:08:58.900Z,23.12
2018-09-06T03:13:38.973Z,24.23
2018-09-06T03:18:20.512Z,22.42
2018-09-06T03:23:01.568Z,22.20
2018-09-06T03:27:42.369Z,23.22
2018-09-06T03:32:23.242Z,23.40
2018-09-06T03:37:05.220Z,23.22
2018-09-06T03:41:45.016Z,25.17
2018-09-06T03:46:25.012Z,24.92
2018-09-06T03:51:05.131Z,24.52
2018-09-06T03:55:45.050Z,23.95
2018-09-06T04:00:25.035Z,25.20
2018-09-06T04:05:06.092Z,23.83
2018-09-06T04:09:47.015Z,24.67
2018-09-06T04:14:28.218Z,23.95
2018-09-06T04:19:08.428Z,26.20
2018-09-06T04:23:49.203Z,25.92
2018-09-06T04:28:29.835Z,24.37
2018-09-06T04:33:11.208Z,24.47
2018-09-06T04:37:51.731Z,24.50
2018-09-06T04:42:32.748Z,25.37
2018-09-06T04:47:12.452Z,24.90
2018-09-06T04:51:52.452Z,25.90
2018-09-06T04:56:32.857Z,28.47
2018-09-06T05:01:13.883Z,26.20
2018-09-06T05:05:54.439Z,26.85
2018-09-06T05:10:34.463Z,24.10
2018-09-06T05:15:15.072Z,25.68
2018-09-06T05:19:54.969Z,24.43
2018-09-06T05:24:34.712Z,25.12
2018-09-06T05:29:14.304Z,22.73
2018-09-06T05:33:54.283Z,22.67
2018-09-06T05:38:35.329Z,24.18
2018-09-06T05:43:17.044Z,21.80
2018-09-06T05:47:58.409Z,22.02
2018-09-06T05:52:39.572Z,19.67
2018-09-06T05:57:19.415Z,23.27
2018-09-06T06:02:00.320Z,21.82
2018-09-06T06:06:40.796Z,27.02
2018-09-06T06:11:21.828Z,24.40
2018-09-06T06:16:02.458Z,23.50
2018-09-06T06:20:42.545Z,21.87
2018-09-06T06:25:22.576Z,23.57
2018-09-06T06:30:02.668Z,21.62
2018-09-06T06:34:43.036Z,22.32
2018-09-06T06:39:23.824Z,21.42
2018-09-06T06:44:03.752Z,23.35
2018-09-06T06:48:44.798Z,22.02
2018-09-06T06:53:25.269Z,21.42
2018-09-06T06:58:05.332Z,19.90
2018-09-06T07:02:46.527Z,24.10
2018-09-06T07:07:26.324Z,20.95
2018-09-06T07:12:07.878Z,21.48
2018-09-06T07:16:47.734Z,24.15
2018-09-06T07:21:28.807Z,24.00
2018-09-06T07:26:10.287Z,24.82
2018-09-06T07:30:50.641Z,23.55
2018-09-06T07:35:31.652Z,24.32
2018-09-06T07:40:11.676Z,23.85
2018-09-06T07:44:51.855Z,21.15
2018-09-06T07:49:32.812Z,17.70
2018-09-06T07:54:13.236Z,19.02
2018-09-06T07:58:54.011Z,18.40
2018-09-06T08:03:34.863Z,17.32
2018-09-06T08:08:14.453Z,15.93
2018-09-06T08:12:54.968Z,18.67
2018-09-06T08:17:35.976Z,20.57
2018-09-06T08:22:15.769Z,16.95
2018-09-06T08:26:57.428Z,16.48
2018-09-06T08:31:37.568Z,17.40
2018-09-06T08:36:19.434Z,16.95
2018-09-06T08:40:59.308Z,17.80
2018-09-06T08:45:39.181Z,15.98
2018-09-06T08:50:18.980Z,15.75
2018-09-06T08:54:59.255Z,16.02
2018-09-06T08:59:39.281Z,17.07
2018-09-06T09:04:19.168Z,16.65
2018-09-06T09:08:58.803Z,17.25
2018-09-06T09:13:39.507Z,17.55
2018-09-06T09:18:20.503Z,15.43
2018-09-06T09:23:01.356Z,16.65
2018-09-06T09:27:42.027Z,14.87
2018-09-06T09:32:22.569Z,16.02
2018-09-06T09:37:03.824Z,14.05
2018-09-06T09:41:43.416Z,14.38
2018-09-06T09:51:03.687Z,14.18
2018-09-06T09:55:44.284Z,15.20
2018-09-06T10:00:29.900Z,15.80
2018-09-06T10:05:15.907Z,14.28
2018-09-06T10:09:57.628Z,14.40
2018-09-06T10:14:38.063Z,13.40
2018-09-06T10:19:18.368Z,15.28
2018-09-06T10:23:58.759Z,16.75
2018-09-06T10:28:39.463Z,19.17
2018-09-06T10:33:20.200Z,16.50
2018-09-06T10:38:00.079Z,16.12
2018-09-06T10:42:41.298Z,17.32
2018-09-06T10:47:24.163Z,14.15
2018-09-06T10:52:04.264Z,14.80
2018-09-06T10:56:44.751Z,12.23
2018-09-06T11:01:26.308Z,11.70
2018-09-06T11:06:06.928Z,12.20
2018-09-06T11:10:47.076Z,10.28
2018-09-06T11:15:28.264Z,10.38
2018-09-06T11:20:09.239Z,9.08
2018-09-06T11:24:50.464Z,9.48
2018-09-06T11:29:31.160Z,8.93
2018-09-06T11:34:11.946Z,8.30
2018-09-06T11:38:53.629Z,8.85
2018-09-06T11:43:33.947Z,9.78
2018-09-06T11:48:14.905Z,8.68
2018-09-06T11:52:55.991Z,9.05
2018-09-06T11:57:37.649Z,10.45
2018-09-06T12:02:17.900Z,9.08
2018-09-06T12:07:00.798Z,9.30
2018-09-06T12:11:40.768Z,8.80
2018-09-06T12:16:22.065Z,7.83
2018-09-06T12:21:02.513Z,8.43
2018-09-06T12:25:42.710Z,8.90
2018-09-06T12:30:23.720Z,9.63
2018-09-06T12:35:04.740Z,9.30
2018-09-06T12:39:45.892Z,9.18
2018-09-06T12:44:26.475Z,9.40
2018-09-06T12:49:06.375Z,9.75
2018-09-06T12:53:46.696Z,11.18
2018-09-06T12:58:26.504Z,11.48
2018-09-06T13:03:06.453Z,10.60
2018-09-06T13:07:47.434Z,10.10
2018-09-06T13:12:27.653Z,10.40
2018-09-06T13:17:07.553Z,11.65
2018-09-06T13:21:48.506Z,10.95
2018-09-06T13:26:28.352Z,11.03
2018-09-06T13:31:08.177Z,11.18
2018-09-06T13:35:48.152Z,10.63
2018-09-06T13:40:29.020Z,10.65
2018-09-06T13:45:09.428Z,11.68
2018-09-06T13:49:49.358Z,10.30
2018-09-06T13:54:29.481Z,10.13
2018-09-06T13:59:10.073Z,8.80
2018-09-06T14:03:50.479Z,9.43
2018-09-06T14:08:31.689Z,9.38
2018-09-06T14:13:11.516Z,12.75
2018-09-06T14:17:51.550Z,16.32
2018-09-06T14:22:32.811Z,17.67
2018-09-06T14:27:13.385Z,18.85
2018-09-06T14:31:53.176Z,16.20
2018-09-06T14:36:34.212Z,13.88
2018-09-06T14:41:14.197Z,13.88
2018-09-06T14:45:53.957Z,14.35
2018-09-06T14:50:34.992Z,14.40
2018-09-06T14:55:14.937Z,15.63
2018-09-06T14:59:54.772Z,14.23
2018-09-06T15:04:35.065Z,16.52
2018-09-06T15:09:14.760Z,16.52
2018-09-06T15:13:55.910Z,17.15
2018-09-06T15:18:36.299Z,17.55
2018-09-06T15:23:18.004Z,17.98
2018-09-06T15:28:00.451Z,17.32
2018-09-06T15:32:40.590Z,19.95
2018-09-06T15:37:21.956Z,21.55
2018-09-06T15:42:02.520Z,22.00
2018-09-06T15:46:43.728Z,21.37
2018-09-06T15:51:25.164Z,22.25
2018-09-06T15:56:05.200Z,22.77
2018-09-06T16:00:46.528Z,23.32
2018-09-06T16:05:27.176Z,23.47
2018-09-06T16:10:08.270Z,22.62
2018-09-06T16:14:48.941Z,23.22
2018-09-06T16:19:31.429Z,24.70
2018-09-06T16:24:12.917Z,22.98
2018-09-06T16:28:53.214Z,20.10
2018-09-06T16:33:33.653Z,30.92
2018-09-06T16:38:13.744Z,25.68
2018-09-06T16:42:55.306Z,29.77
2018-09-06T16:47:37.513Z,23.60
2018-09-06T16:52:18.715Z,23.73
2018-09-06T16:56:58.691Z,25.08
2018-09-06T17:01:38.531Z,26.77
2018-09-06T17:06:18.892Z,29.55
2018-09-06T17:11:00.158Z,29.82
2018-09-06T17:15:43.376Z,28.12
2018-09-06T17:20:23.493Z,28.83
2018-09-06T17:25:03.720Z,30.62
2018-09-06T17:29:44.357Z,30.82
2018-09-06T17:34:24.984Z,29.92
2018-09-06T17:39:07.823Z,30.62
2018-09-06T17:43:49.000Z,29.10
2018-09-06T17:48:29.077Z,34.15
2018-09-06T17:53:09.101Z,32.28
2018-09-06T17:57:49.311Z,32.70
2018-09-06T18:02:29.506Z,29.95
2018-09-06T18:07:10.844Z,35.63
2018-09-06T18:11:51.460Z,34.05
2018-09-06T18:16:31.914Z,38.75
2018-09-06T18:21:11.697Z,40.50
2018-09-06T18:25:51.659Z,37.88
2018-09-06T18:30:32.309Z,34.98
2018-09-06T18:35:12.079Z,33.50
2018-09-06T18:39:52.596Z,34.25
2018-09-06T18:44:32.518Z,45.17
2018-09-06T18:49:12.589Z,38.30
2018-09-06T18:53:53.104Z,37.00
2018-09-06T18:58:34.279Z,36.95
2018-09-06T19:03:14.122Z,40.63
2018-09-06T19:07:54.080Z,37.00
2018-09-06T19:12:35.408Z,32.95
2018-09-06T19:17:15.071Z,35.78
2018-09-06T19:21:55.630Z,37.50
2018-09-06T19:26:35.596Z,35.33
2018-09-06T19:31:15.863Z,40.52
2018-09-06T19:35:55.834Z,41.70
2018-09-06T19:40:35.556Z,39.50
2018-09-06T19:45:15.403Z,38.48
2018-09-06T19:49:55.287Z,40.70
2018-09-06T19:54:35.196Z,39.75
2018-09-06T19:59:16.184Z,43.25
2018-09-06T20:03:56.069Z,39.90
2018-09-06T20:08:35.953Z,42.67
2018-09-06T20:13:16.740Z,40.15
2018-09-06T20:17:56.940Z,35.28
2018-09-06T20:22:38.189Z,38.75
2018-09-06T20:27:18.983Z,39.85
2018-09-06T20:32:00.393Z,39.40
2018-09-06T20:36:41.006Z,42.10
2018-09-06T20:41:21.509Z,39.35
2018-09-06T20:46:02.256Z,39.03
2018-09-06T20:50:44.234Z,44.93
2018-09-06T20:55:25.414Z,44.23
2018-09-06T21:00:05.746Z,43.55
2018-09-06T21:04:47.067Z,44.88
2018-09-06T21:09:28.061Z,41.83
2018-09-06T21:14:09.084Z,44.75
2018-09-06T21:18:50.091Z,43.73
2018-09-06T21:23:30.542Z,45.60
2018-09-06T21:28:10.752Z,48.87
2018-09-06T21:32:50.974Z,54.03
2018-09-06T21:37:30.867Z,57.23
2018-09-06T21:42:10.883Z,49.48
2018-09-06T21:46:51.835Z,57.45
2018-09-06T21:51:32.175Z,54.60
2018-09-06T21:56:12.300Z,56.55
2018-09-06T22:00:52.765Z,55.73
2018-09-06T22:05:32.883Z,55.52
2018-09-06T22:10:13.484Z,58.02
2018-09-06T22:14:53.205Z,59.93
2018-09-06T22:19:33.044Z,60.65
2018-09-06T22:24:13.920Z,65.57
2018-09-06T22:28:54.043Z,60.30
2018-09-06T22:33:34.919Z,61.68
2018-09-06T22:38:14.942Z,67.50
2018-09-06T22:42:54.800Z,57.25
2018-09-06T22:47:36.056Z,55.60
2018-09-06T22:52:16.296Z,61.02
2018-09-06T22:56:56.733Z,57.75
2018-09-06T23:01:37.500Z,59.83
2018-09-06T23:06:17.372Z,61.60
2018-09-06T23:10:57.767Z,69.80
2018-09-06T23:15:38.270Z,64.15
2018-09-06T23:20:19.145Z,63.78
2018-09-06T23:24:59.249Z,75.65
2018-09-06T23:29:40.452Z,71.45
2018-09-06T23:34:20.372Z,72.67
2018-09-06T23:39:00.432Z,82.15
2018-09-06T23:43:40.941Z,76.65
2018-09-06T23:48:23.686Z,76.47
2018-09-06T23:53:04.022Z,74.70
2018-09-06T23:57:43.872Z,72.35
